Карточка аэропорта URSS

Внимание!
Информация на этой странице в стадии наполнения.
Если вы не увидели какой-то информации, или заметили неточность - пожалуйста сообщите нам!
Спасибо!
Команда RU-STAFF
Название аэропортаСочи
Название аэропорта (англ.)Sochi
Превышение89 ft. (27.1 m.)
Координаты43°26.634', 39°56.55'
Высота перехода13000 ft
Эшелон переходаQNH>=977hPa: FL150; QNH<977hPa: FL160
Коды ответчика1060-1077
Зона ОрВДРостов-на-Дону РПИ (URRV)
Данные METARURSS 240930Z 21004MPS 9999 FEW030 28/20 Q1005 R02/010070 R06/010070 NOSIG RMK R06/24004MPS MT OBSC QFE752
Проноз погоды (TAF)URSS 240755Z 2409/2509 22005G10MPS 9999 SCT030CB SCT100 BECMG 2412/2413 28005G10MPS BECMG 2417/2418 05004G09MPS TEMPO 2421/2506 VRB05G10MPS -TSRA BECMG 2506/2507 16004G09MPS
NOTAMshow/hide NOTAM
AWOS   TABLE

Информация о ВПП

ВПП Длина ВПП (м.) Покрытие Курс ВПП Частота ILS
242890Цементобетон238 
202500Цементобетон202 
062890Цементобетон58111.1
022500Цементобетон22110.5

Диспетчерские позиции

Позывной Наименование органа УВД Частота
URSSFM1119.000
URSS_APPСочи-Подход124.600
URSS_DELСочи-Деливери132.700
URSS_GNDСочи-Руление119.000
URSS_R_APPСочи-Круг119.700
URSS_TWRСочи-Старт121.200



Спутниковое изображение